This is the latest recevied weather packets stored in our database for station/object KM7BEO. If no packets are shown the sender has not sent any weather packets the latest 10 day(s).
| Time | Temp. | Humidity | Pressure | Rain* | Wind** | Luminosity | Snow |
|---|---|---|---|---|---|---|---|
| 1777830762 | 20° C | 60% | 1013.7 hPa | 0 mm | - | 441 W/m² | - |
| 1777830457 | 20.56° C | 56% | 1013.8 hPa | 0 mm | - | 409 W/m² | - |
| 1777830156 | 20.56° C | 51% | 1013.9 hPa | 0 mm | - | 516 W/m² | - |
| 1777829856 | 19.44° C | 56% | 1013.8 hPa | 0 mm | - | 416 W/m² | - |
| 1777829552 | 18.89° C | 56% | 1014.1 hPa | 0 mm | - | 456 W/m² | - |
| 1777829249 | 18.89° C | 56% | 1013.9 hPa | 0 mm | - | 288 W/m² | - |
| 1777828946 | 18.89° C | 57% | 1014.2 hPa | 0 mm | - | 234 W/m² | - |
| 1777828643 | 19.44° C | 57% | 1013.9 hPa | 0 mm | - | 150 W/m² | - |
| 1777828340 | 18.89° C | 64% | 1014.1 hPa | 0 mm | - | 205 W/m² | - |
| 1777828037 | 19.44° C | 61% | 1013.9 hPa | 0 mm | - | 338 W/m² | - |
| 1777827734 | 19.44° C | 58% | 1014 hPa | 0 mm | - | 345 W/m² | - |
| 1777827431 | 18.33° C | 66% | 1014 hPa | 0 mm | - | 438 W/m² | - |
| 1777827128 | 17.78° C | 68% | 1013.9 hPa | 0 mm | - | 355 W/m² | - |
| 1777826824 | 17.78° C | 68% | 1014.1 hPa | 0 mm | - | 362 W/m² | - |
| 1777826521 | 17.78° C | 67% | 1014.2 hPa | 0 mm | - | 364 W/m² | - |
| 1777826217 | 17.78° C | 68% | 1014.2 hPa | 0 mm | - | 351 W/m² | - |
| 1777825915 | 17.78° C | 68% | 1014.3 hPa | 0 mm | - | 355 W/m² | - |
| 1777825612 | 17.78° C | 68% | 1014.2 hPa | 0 mm | - | 353 W/m² | - |
| 1777825310 | 17.78° C | 67% | 1014.3 hPa | 0 mm | - | 350 W/m² | - |
| 1777825007 | 17.78° C | 68% | 1014 hPa | 0 mm | - | 339 W/m² | - |
| 1777824702 | 17.78° C | 68% | 1014.3 hPa | 0 mm | - | 326 W/m² | - |
| 1777824400 | 17.78° C | 68% | 1014.4 hPa | 0 mm | - | 306 W/m² | - |
| 1777824096 | 17.78° C | 66% | 1014.3 hPa | 0 mm | - | 288 W/m² | - |
| 1777823792 | 18.33° C | 66% | 1014.3 hPa | 0 mm | - | 304 W/m² | - |
| 1777823489 | 18.33° C | 63% | 1014.1 hPa | 0 mm | - | 251 W/m² | - |
* Rain latest hour (hover to see other rain measurements)
** Current wind speed in m/s (hover to see current wind gust speed)